createdAt,value
2022-08-05T00:00:46.664Z,40.44
2022-08-05T00:01:48.555Z,42.70
2022-08-05T00:02:51.409Z,37.54
2022-08-05T00:03:44.499Z,39.64
2022-08-05T00:04:43.464Z,36.42
2022-08-05T00:06:06.539Z,42.70
2022-08-05T00:06:44.445Z,47.86
2022-08-05T00:08:00.093Z,39.32
2022-08-05T00:08:44.467Z,36.09
2022-08-05T00:09:43.425Z,36.25
2022-08-05T00:10:43.410Z,39.80
2022-08-05T00:11:48.240Z,37.38
2022-08-05T00:12:56.233Z,46.41
2022-08-05T00:13:44.398Z,41.89
2022-08-05T00:14:44.414Z,44.15
2022-08-05T00:15:56.021Z,50.43
2022-08-05T00:16:53.015Z,37.87
2022-08-05T00:17:44.366Z,37.71
2022-08-05T00:18:44.228Z,39.64
2022-08-05T00:19:45.614Z,38.99
2022-08-05T00:20:44.344Z,38.35
2022-08-05T00:21:43.342Z,38.19
2022-08-05T00:22:47.105Z,38.83
2022-08-05T00:23:46.830Z,36.74
2022-08-05T00:24:44.314Z,37.54
2022-08-05T00:25:46.092Z,39.16
2022-08-05T00:26:50.859Z,38.99
2022-08-05T00:27:44.290Z,45.28
2022-08-05T00:28:43.317Z,42.86
2022-08-05T00:29:43.282Z,36.25
2022-08-05T00:30:44.190Z,35.77
2022-08-05T00:32:10.216Z,34.48
2022-08-05T00:32:44.252Z,35.29
2022-08-05T00:34:54.742Z,40.12
2022-08-05T00:35:03.982Z,38.83
2022-08-05T00:36:14.814Z,37.87
2022-08-05T00:37:10.805Z,41.41
2022-08-05T00:37:52.597Z,38.03
2022-08-05T00:38:44.209Z,44.63
2022-08-05T00:39:57.180Z,40.93
2022-08-05T00:40:51.954Z,38.51
2022-08-05T00:41:52.232Z,43.51
2022-08-05T00:42:44.180Z,41.41
2022-08-05T00:43:49.752Z,42.22
2022-08-05T00:44:44.184Z,39.48
2022-08-05T00:45:44.013Z,40.93
2022-08-05T00:46:43.535Z,48.02
2022-08-05T00:47:56.264Z,49.63
2022-08-05T00:48:51.312Z,46.57
2022-08-05T00:49:44.609Z,43.67
2022-08-05T00:50:46.108Z,49.79
2022-08-05T00:51:51.013Z,49.95
2022-08-05T00:52:45.374Z,45.44
2022-08-05T00:54:00.921Z,42.86
2022-08-05T00:54:44.113Z,44.47
2022-08-05T00:55:43.791Z,40.77
2022-08-05T00:56:45.032Z,38.19
2022-08-05T00:57:58.549Z,40.93
2022-08-05T00:58:45.013Z,40.61
2022-08-05T00:59:44.661Z,40.93
2022-08-05T01:00:43.076Z,37.22
2022-08-05T01:01:48.673Z,47.53
2022-08-05T01:02:44.029Z,45.92
2022-08-05T01:03:43.023Z,40.77
2022-08-05T01:04:44.037Z,37.71
2022-08-05T01:05:43.007Z,54.62
2022-08-05T01:06:43.773Z,48.66
2022-08-05T01:08:40.968Z,44.47
2022-08-05T01:08:44.693Z,47.05
2022-08-05T01:09:43.992Z,37.87
2022-08-05T01:10:52.400Z,35.77
2022-08-05T01:11:43.953Z,38.19
2022-08-05T01:12:42.944Z,53.82
2022-08-05T01:13:59.119Z,40.93
2022-08-05T01:14:43.958Z,43.34
2022-08-05T01:15:47.808Z,44.31
2022-08-05T01:16:44.266Z,45.12
2022-08-05T01:17:44.238Z,40.28
2022-08-05T01:18:42.898Z,35.93
2022-08-05T01:20:02.001Z,39.64
2022-08-05T01:20:43.883Z,40.61
2022-08-05T01:21:42.878Z,38.83
2022-08-05T01:22:47.075Z,34.80
2022-08-05T01:23:42.861Z,34.32
2022-08-05T01:24:43.881Z,34.48
2022-08-05T01:25:42.836Z,40.61
2022-08-05T01:26:44.836Z,41.89
2022-08-05T01:27:50.770Z,35.29
2022-08-05T01:28:43.824Z,37.06
2022-08-05T01:29:42.946Z,48.82
2022-08-05T01:30:53.558Z,54.79
2022-08-05T01:31:45.207Z,48.18
2022-08-05T01:32:42.795Z,43.51
2022-08-05T01:33:42.783Z,44.47
2022-08-05T01:34:43.802Z,50.76
2022-08-05T01:35:50.988Z,39.80
2022-08-05T01:36:46.879Z,44.63
2022-08-05T01:37:44.426Z,40.44
2022-08-05T01:38:42.746Z,47.53
2022-08-05T01:39:46.518Z,51.08
2022-08-05T01:40:43.730Z,38.51
2022-08-05T01:41:44.483Z,39.32
2022-08-05T01:42:42.724Z,38.35
2022-08-05T01:43:42.712Z,37.87
2022-08-05T01:44:42.734Z,35.77
2022-08-05T01:45:43.007Z,38.99
2022-08-05T01:46:46.178Z,38.03
2022-08-05T01:47:43.741Z,38.51
2022-08-05T01:48:42.670Z,43.34
2022-08-05T01:50:01.923Z,42.70
2022-08-05T01:50:50.860Z,42.70
2022-08-05T01:51:43.647Z,46.08
2022-08-05T01:52:43.638Z,38.99
2022-08-05T01:53:57.922Z,38.19
2022-08-05T01:54:45.736Z,46.08
2022-08-05T01:55:42.615Z,44.79
2022-08-05T01:58:11.544Z,38.67
2022-08-05T01:58:13.082Z,44.47
2022-08-05T01:58:44.958Z,38.03
2022-08-05T01:59:47.058Z,45.28
2022-08-05T02:00:42.580Z,44.31
2022-08-05T02:01:42.641Z,45.60
2022-08-05T02:02:46.466Z,43.34
2022-08-05T02:03:43.570Z,40.93
2022-08-05T02:04:42.573Z,46.73
2022-08-05T02:05:42.730Z,44.63
2022-08-05T02:06:42.536Z,40.44
2022-08-05T02:07:42.526Z,43.18
2022-08-05T02:08:54.893Z,46.25
2022-08-05T02:09:43.547Z,48.82
2022-08-05T02:10:42.516Z,41.73
2022-08-05T02:11:42.520Z,43.18
2022-08-05T02:12:43.492Z,40.28
2022-08-05T02:13:53.394Z,41.73
2022-08-05T02:14:43.481Z,43.34
2022-08-05T02:15:42.499Z,47.86
2022-08-05T02:16:42.523Z,40.44
2022-08-05T02:18:27.900Z,44.63
2022-08-05T02:18:43.450Z,45.28
2022-08-05T02:19:47.015Z,43.83
2022-08-05T02:20:42.530Z,40.61
2022-08-05T02:21:43.274Z,39.48
2022-08-05T02:22:42.422Z,45.76
2022-08-05T02:23:42.412Z,40.12
2022-08-05T02:24:42.399Z,41.41
2022-08-05T02:25:49.146Z,45.12
2022-08-05T02:26:51.862Z,38.83
2022-08-05T02:27:59.273Z,42.38
2022-08-05T02:28:46.000Z,37.87
2022-08-05T02:29:58.758Z,38.51
2022-08-05T02:30:54.566Z,40.28
2022-08-05T02:31:43.350Z,53.82
2022-08-05T02:32:42.341Z,64.29
2022-08-05T02:33:42.329Z,69.61
2022-08-05T02:34:43.323Z,69.13
2022-08-05T02:35:50.960Z,68.96
2022-08-05T02:36:43.303Z,71.06
2022-08-05T02:37:42.294Z,65.90
2022-08-05T02:38:43.350Z,63.65
2022-08-05T02:39:42.388Z,67.68
2022-08-05T02:40:43.300Z,65.10
2022-08-05T02:41:57.908Z,61.87
2022-08-05T02:42:43.256Z,61.23
2022-08-05T02:44:02.640Z,64.29
2022-08-05T02:44:43.246Z,63.49
2022-08-05T02:45:51.889Z,62.04
2022-08-05T02:46:53.806Z,61.39
2022-08-05T02:48:06.878Z,60.26
2022-08-05T02:48:43.450Z,58.01
2022-08-05T02:49:42.212Z,55.43
2022-08-05T02:50:43.682Z,53.33
2022-08-05T02:52:04.242Z,60.42
2022-08-05T02:52:43.185Z,54.95
2022-08-05T02:53:42.173Z,51.24
2022-08-05T02:54:42.625Z,53.50
2022-08-05T02:55:54.300Z,53.50
2022-08-05T02:56:43.444Z,50.27
2022-08-05T02:58:11.605Z,52.05
2022-08-05T02:58:43.764Z,49.15
2022-08-05T02:59:50.747Z,47.21
2022-08-05T03:00:45.977Z,55.59
2022-08-05T03:01:42.174Z,47.05
2022-08-05T03:02:42.885Z,50.27
2022-08-05T03:04:02.106Z,52.05
2022-08-05T03:04:43.090Z,52.21
2022-08-05T03:06:54.658Z,56.72
2022-08-05T03:06:56.395Z,57.85
2022-08-05T03:08:04.421Z,57.04
2022-08-05T03:08:43.058Z,52.53
2022-08-05T03:09:43.950Z,51.08
2022-08-05T03:10:43.043Z,47.37
2022-08-05T03:11:57.390Z,49.15
2022-08-05T03:12:43.041Z,48.66
2022-08-05T03:13:51.838Z,49.95
2022-08-05T03:14:45.995Z,60.59
2022-08-05T03:15:43.004Z,57.20
2022-08-05T03:16:42.013Z,48.18
2022-08-05T03:17:42.194Z,55.11
2022-08-05T03:18:42.082Z,53.82
2022-08-05T03:19:42.099Z,55.11
2022-08-05T03:20:48.672Z,58.01
2022-08-05T03:21:49.535Z,54.30
2022-08-05T03:22:46.766Z,51.24
2022-08-05T03:23:42.938Z,49.79
2022-08-05T03:24:41.935Z,55.75
2022-08-05T03:26:04.803Z,49.47
2022-08-05T03:26:42.946Z,50.43
2022-08-05T03:27:59.064Z,48.82
2022-08-05T03:28:42.899Z,54.14
2022-08-05T03:29:45.166Z,59.30
2022-08-05T03:30:42.886Z,54.79
2022-08-05T03:31:56.462Z,50.76
2022-08-05T03:32:42.872Z,59.62
2022-08-05T03:33:49.287Z,53.50
2022-08-05T03:34:50.996Z,52.69
2022-08-05T03:35:42.841Z,57.36
2022-08-05T03:36:41.859Z,57.85
2022-08-05T03:37:46.674Z,55.75
2022-08-05T03:38:42.825Z,55.43
2022-08-05T03:39:57.673Z,52.37
2022-08-05T03:40:45.419Z,55.59
2022-08-05T03:41:46.662Z,58.17
2022-08-05T03:42:51.723Z,49.63
2022-08-05T03:44:09.597Z,56.40
2022-08-05T03:44:42.773Z,47.70
2022-08-05T03:45:58.216Z,54.62
2022-08-05T03:46:42.757Z,60.75
2022-08-05T03:47:42.032Z,60.91
2022-08-05T03:48:41.741Z,51.56
2022-08-05T03:49:51.405Z,46.73
2022-08-05T03:50:42.728Z,57.52
2022-08-05T03:52:48.331Z,55.11
2022-08-05T03:54:59.143Z,57.69
2022-08-05T03:55:00.424Z,47.21
2022-08-05T03:55:54.081Z,53.17
2022-08-05T03:56:04.360Z,54.14
2022-08-05T03:56:42.680Z,55.11
2022-08-05T03:57:44.365Z,55.75
2022-08-05T03:58:41.667Z,51.72
2022-08-05T03:59:47.132Z,48.34
2022-08-05T04:00:44.246Z,57.52
2022-08-05T04:01:42.695Z,50.11
2022-08-05T04:02:52.052Z,49.47
2022-08-05T04:04:09.707Z,49.79
2022-08-05T04:04:42.616Z,57.20
2022-08-05T04:05:41.621Z,52.85
2022-08-05T04:06:47.653Z,53.33
2022-08-05T04:07:57.961Z,54.62
2022-08-05T04:08:42.597Z,54.62
2022-08-05T04:09:53.503Z,57.52
2022-08-05T04:10:42.571Z,52.21
2022-08-05T04:11:50.429Z,56.24
2022-08-05T04:14:30.405Z,57.69
2022-08-05T04:15:33.249Z,48.34
2022-08-05T04:16:32.412Z,48.34
2022-08-05T04:17:50.864Z,50.92
2022-08-05T04:18:30.229Z,51.40
2022-08-05T04:19:29.214Z,46.57
2022-08-05T04:20:29.193Z,40.61
2022-08-05T04:22:09.391Z,48.18
2022-08-05T04:22:30.174Z,45.60
2022-08-05T04:24:04.655Z,53.82
2022-08-05T04:24:30.164Z,46.25
2022-08-05T04:25:56.414Z,49.63
2022-08-05T04:26:32.383Z,40.93
2022-08-05T04:27:42.152Z,48.82
2022-08-05T04:28:30.811Z,45.44
2022-08-05T04:29:29.125Z,48.34
2022-08-05T04:30:29.114Z,50.27
2022-08-05T04:31:38.417Z,53.17
2022-08-05T04:32:31.045Z,43.99
2022-08-05T04:34:17.302Z,48.18
2022-08-05T04:34:32.498Z,46.25
2022-08-05T04:36:16.417Z,45.92
2022-08-05T04:36:49.664Z,51.56
2022-08-05T04:38:02.880Z,50.11
2022-08-05T04:38:39.516Z,46.89
2022-08-05T04:39:30.120Z,48.50
2022-08-05T04:40:29.040Z,54.62
2022-08-05T04:41:36.859Z,48.66
2022-08-05T04:42:30.020Z,49.95
2022-08-05T04:43:29.040Z,46.57
2022-08-05T04:44:29.874Z,44.79
2022-08-05T04:45:31.097Z,56.56
2022-08-05T04:46:29.988Z,52.53
2022-08-05T04:47:28.980Z,49.63
2022-08-05T04:48:30.006Z,53.50
2022-08-05T04:49:38.555Z,49.31
2022-08-05T04:50:37.616Z,49.31
2022-08-05T04:51:30.305Z,55.59
2022-08-05T04:52:33.459Z,52.69
2022-08-05T04:53:28.935Z,59.14
2022-08-05T04:54:28.950Z,52.69
2022-08-05T04:56:33.173Z,56.07
2022-08-05T04:56:34.964Z,57.85
2022-08-05T04:57:29.904Z,56.40
2022-08-05T04:58:29.896Z,53.50
2022-08-05T04:59:38.735Z,57.36
2022-08-05T05:00:29.878Z,59.94
2022-08-05T05:02:05.987Z,57.85
2022-08-05T05:02:37.084Z,57.20
2022-08-05T05:03:41.961Z,57.20
2022-08-05T05:04:29.877Z,57.52
2022-08-05T05:05:29.401Z,54.62
2022-08-05T05:06:39.188Z,51.56
2022-08-05T05:07:32.749Z,50.60
2022-08-05T05:08:30.401Z,53.33
2022-08-05T05:09:28.833Z,55.27
2022-08-05T05:10:29.633Z,57.85
2022-08-05T05:11:41.497Z,47.37
2022-08-05T05:12:29.786Z,54.14
2022-08-05T05:13:32.204Z,52.37
2022-08-05T05:14:31.960Z,49.79
2022-08-05T05:15:56.522Z,49.95
2022-08-05T05:16:30.373Z,56.24
2022-08-05T05:17:56.279Z,50.43
2022-08-05T05:18:33.570Z,50.43
2022-08-05T05:19:37.044Z,54.14
2022-08-05T05:20:29.723Z,55.11
2022-08-05T05:21:28.717Z,50.76
2022-08-05T05:22:28.708Z,55.27
2022-08-05T05:23:39.097Z,46.89
2022-08-05T05:24:42.934Z,48.50
2022-08-05T05:25:40.384Z,53.33
2022-08-05T05:26:32.976Z,50.11
2022-08-05T05:27:44.969Z,50.43
2022-08-05T05:28:29.659Z,54.95
2022-08-05T05:30:03.347Z,52.37
2022-08-05T05:30:31.246Z,49.31
2022-08-05T05:31:35.910Z,53.98
2022-08-05T05:32:28.634Z,50.11
2022-08-05T05:33:28.625Z,46.41
2022-08-05T05:34:29.655Z,48.98
2022-08-05T05:35:29.139Z,54.95
2022-08-05T05:36:30.023Z,51.88
2022-08-05T05:37:37.185Z,44.31
2022-08-05T05:38:29.583Z,49.31
2022-08-05T05:39:34.492Z,56.07
2022-08-05T05:40:29.572Z,57.04
2022-08-05T05:41:40.447Z,47.21
2022-08-05T05:42:29.557Z,54.95
2022-08-05T05:43:57.109Z,56.40
2022-08-05T05:44:36.419Z,51.56
2022-08-05T05:45:29.535Z,54.95
2022-08-05T05:46:28.531Z,53.98
2022-08-05T05:47:30.533Z,52.05
2022-08-05T05:48:29.506Z,56.07
2022-08-05T05:49:28.526Z,55.91
2022-08-05T05:50:28.501Z,54.14
2022-08-05T05:51:28.491Z,54.46
2022-08-05T05:52:32.935Z,54.14
2022-08-05T05:53:29.476Z,53.33
2022-08-05T05:54:50.060Z,59.30
2022-08-05T05:55:51.636Z,51.40
2022-08-05T05:56:32.984Z,51.88
2022-08-05T05:57:42.739Z,47.86
2022-08-05T05:58:31.371Z,48.34
2022-08-05T05:59:28.706Z,49.15
2022-08-05T06:00:31.716Z,43.51
2022-08-05T06:01:37.157Z,48.82
2022-08-05T06:02:37.483Z,48.34
2022-08-05T06:03:53.864Z,48.66
2022-08-05T06:04:29.420Z,54.62
2022-08-05T06:05:28.373Z,51.56
2022-08-05T06:06:31.039Z,54.95
2022-08-05T06:07:41.851Z,44.79
2022-08-05T06:08:32.804Z,49.63
2022-08-05T06:09:51.372Z,53.66
2022-08-05T06:10:29.559Z,43.67
2022-08-05T06:11:29.329Z,49.15
2022-08-05T06:12:28.318Z,45.76
2022-08-05T06:13:28.319Z,49.63
2022-08-05T06:14:29.331Z,51.40
2022-08-05T06:16:28.928Z,52.53
2022-08-05T06:16:36.593Z,51.56
2022-08-05T06:17:31.066Z,49.63
2022-08-05T06:18:31.286Z,53.82
2022-08-05T06:19:34.854Z,52.85
2022-08-05T06:20:29.288Z,49.31
2022-08-05T06:21:36.421Z,50.43
2022-08-05T06:22:29.241Z,42.38
2022-08-05T06:23:32.261Z,50.60
2022-08-05T06:24:29.254Z,43.34
2022-08-05T06:26:13.008Z,46.41
2022-08-05T06:26:31.921Z,52.69
2022-08-05T06:28:12.854Z,44.79
2022-08-05T06:28:29.191Z,49.79
2022-08-05T06:29:52.071Z,40.61
2022-08-05T06:30:29.202Z,46.57
2022-08-05T06:31:32.014Z,42.70
2022-08-05T06:32:28.871Z,48.50
2022-08-05T06:33:33.295Z,43.51
2022-08-05T06:34:29.145Z,51.24
2022-08-05T06:36:07.684Z,52.53
2022-08-05T06:36:29.128Z,48.34
2022-08-05T06:37:57.713Z,44.31
2022-08-05T06:38:36.322Z,38.99
2022-08-05T06:39:29.157Z,48.50
2022-08-05T06:40:32.590Z,48.82
2022-08-05T06:41:28.091Z,40.93
2022-08-05T06:42:29.083Z,40.61
2022-08-05T06:43:57.713Z,42.06
2022-08-05T06:44:29.068Z,45.44
2022-08-05T06:45:45.033Z,47.53
2022-08-05T06:46:30.690Z,42.86
2022-08-05T06:48:11.288Z,50.43
2022-08-05T06:48:52.589Z,49.63
2022-08-05T06:50:01.095Z,43.18
2022-08-05T06:50:29.043Z,40.93
2022-08-05T06:51:29.841Z,46.73
2022-08-05T06:52:37.677Z,43.83
2022-08-05T06:53:29.413Z,46.08
2022-08-05T06:54:27.982Z,45.76
2022-08-05T06:55:27.998Z,40.44
2022-08-05T06:56:28.971Z,49.15
2022-08-05T06:57:57.900Z,45.76
2022-08-05T06:58:35.141Z,45.44
2022-08-05T06:59:28.950Z,54.46
2022-08-05T07:00:29.633Z,52.53
2022-08-05T07:01:32.765Z,41.25
2022-08-05T07:02:28.927Z,45.60
2022-08-05T07:03:32.574Z,43.34
2022-08-05T07:04:28.914Z,47.37
2022-08-05T07:05:37.689Z,47.21
2022-08-05T07:06:29.902Z,48.98
2022-08-05T07:07:43.149Z,53.66
2022-08-05T07:08:28.882Z,51.40
2022-08-05T07:09:32.188Z,51.08
2022-08-05T07:10:32.330Z,48.82
2022-08-05T07:11:27.871Z,42.86
2022-08-05T07:12:27.872Z,47.37
2022-08-05T07:13:56.687Z,43.18
2022-08-05T07:14:30.539Z,50.43
2022-08-05T07:16:00.437Z,47.70
2022-08-05T07:17:57.167Z,50.76
2022-08-05T07:18:00.824Z,46.57
2022-08-05T07:18:30.155Z,40.28
2022-08-05T07:20:10.487Z,37.06
2022-08-05T07:20:33.376Z,42.86
2022-08-05T07:21:28.796Z,39.80
2022-08-05T07:22:30.125Z,49.79
2022-08-05T07:23:29.687Z,41.09
2022-08-05T07:24:28.653Z,44.31
2022-08-05T07:25:56.298Z,47.53
2022-08-05T07:26:28.776Z,45.44
2022-08-05T07:27:58.180Z,44.79
2022-08-05T07:28:28.748Z,44.63
2022-08-05T07:30:24.366Z,43.51
2022-08-05T07:30:32.764Z,52.05
2022-08-05T07:31:40.870Z,40.61
2022-08-05T07:32:28.715Z,39.32
2022-08-05T07:33:37.268Z,48.82
2022-08-05T07:34:28.905Z,49.63
2022-08-05T07:36:01.814Z,41.25
2022-08-05T07:36:28.696Z,41.41
2022-08-05T07:37:36.003Z,55.91
2022-08-05T07:38:33.561Z,48.18
2022-08-05T07:40:04.716Z,54.14
2022-08-05T07:40:32.580Z,43.67
2022-08-05T07:42:07.317Z,50.92
2022-08-05T07:42:31.564Z,49.63
2022-08-05T07:43:28.635Z,44.63
2022-08-05T07:44:27.653Z,43.18
2022-08-05T07:45:56.459Z,42.70
2022-08-05T07:46:28.608Z,44.15
2022-08-05T07:47:27.603Z,47.21
2022-08-05T07:49:00.691Z,41.57
2022-08-05T07:49:28.643Z,43.18
2022-08-05T07:50:32.423Z,44.47
2022-08-05T07:51:37.057Z,49.47
2022-08-05T07:52:28.567Z,50.27
2022-08-05T07:53:36.861Z,40.77
2022-08-05T07:54:31.639Z,49.79
2022-08-05T07:56:05.141Z,39.48
2022-08-05T07:57:00.063Z,47.37
2022-08-05T07:57:56.229Z,46.73
2022-08-05T07:58:57.190Z,47.05
2022-08-05T07:59:38.295Z,48.82
2022-08-05T08:00:28.514Z,45.28
2022-08-05T08:01:27.599Z,46.41
2022-08-05T08:02:31.364Z,44.31
2022-08-05T08:03:44.582Z,48.66
2022-08-05T08:04:37.614Z,47.86
2022-08-05T08:05:28.472Z,48.50
2022-08-05T08:06:28.295Z,46.41
2022-08-05T08:07:28.426Z,45.28
2022-08-05T08:08:27.460Z,50.11
2022-08-05T08:09:29.178Z,51.88
2022-08-05T08:10:27.441Z,46.25
2022-08-05T08:11:47.637Z,50.92
2022-08-05T08:12:48.638Z,48.50
2022-08-05T08:13:28.982Z,51.40
2022-08-05T08:14:27.413Z,44.31
2022-08-05T08:16:34.530Z,51.56
2022-08-05T08:16:49.917Z,46.25
2022-08-05T08:17:28.382Z,47.53
2022-08-05T08:18:27.378Z,48.98
2022-08-05T08:20:22.990Z,50.27
2022-08-05T08:20:44.149Z,44.15
2022-08-05T08:21:28.356Z,43.83
2022-08-05T08:22:27.350Z,49.95
2022-08-05T08:24:01.193Z,47.70
2022-08-05T08:24:37.112Z,47.21
2022-08-05T08:26:00.485Z,50.11
2022-08-05T08:26:29.582Z,41.73
2022-08-05T08:27:35.685Z,44.47
2022-08-05T08:28:36.155Z,44.96
2022-08-05T08:30:04.175Z,42.06
2022-08-05T08:30:37.679Z,43.34
2022-08-05T08:31:28.286Z,45.44
2022-08-05T08:32:28.205Z,45.76
2022-08-05T08:33:27.349Z,44.15
2022-08-05T08:34:30.867Z,50.43
2022-08-05T08:35:28.271Z,44.79
2022-08-05T08:36:37.490Z,44.31
2022-08-05T08:37:28.301Z,48.66
2022-08-05T08:38:32.195Z,38.99
2022-08-05T08:39:28.240Z,42.22
2022-08-05T08:40:27.246Z,47.37
2022-08-05T08:41:50.837Z,45.44
2022-08-05T08:42:33.779Z,46.25
2022-08-05T08:45:19.497Z,48.98
2022-08-05T08:45:23.786Z,47.05
2022-08-05T08:45:29.594Z,47.70
2022-08-05T08:46:27.171Z,47.21
2022-08-05T08:48:05.917Z,47.70
2022-08-05T08:48:41.590Z,41.57
2022-08-05T08:50:23.461Z,50.60
2022-08-05T08:50:52.040Z,45.92
2022-08-05T08:52:03.623Z,45.28
2022-08-05T08:52:28.493Z,48.66
2022-08-05T08:53:27.110Z,45.28
2022-08-05T08:54:27.540Z,43.34
2022-08-05T08:56:02.163Z,48.34
2022-08-05T08:56:28.092Z,48.82
2022-08-05T08:57:42.097Z,45.12
2022-08-05T08:58:43.207Z,45.60
2022-08-05T08:59:33.654Z,46.41
2022-08-05T09:00:28.151Z,48.66
2022-08-05T09:01:27.078Z,46.57
2022-08-05T09:02:27.303Z,47.70
2022-08-05T09:03:27.037Z,45.28
2022-08-05T09:04:30.745Z,44.31
2022-08-05T09:05:38.258Z,42.54
2022-08-05T09:06:29.825Z,43.51
2022-08-05T09:07:29.184Z,43.34
2022-08-05T09:08:30.075Z,48.34
2022-08-05T09:09:34.812Z,46.41
2022-08-05T09:10:29.665Z,46.41
2022-08-05T09:11:51.449Z,46.25
2022-08-05T09:12:28.006Z,40.93
2022-08-05T09:13:31.775Z,43.18
2022-08-05T09:14:56.816Z,41.57
2022-08-05T09:15:27.971Z,40.44
2022-08-05T09:16:27.040Z,38.03
2022-08-05T09:17:40.659Z,44.96
2022-08-05T09:18:27.923Z,42.86
2022-08-05T09:19:27.777Z,41.09
2022-08-05T09:20:36.300Z,42.86
2022-08-05T09:22:17.799Z,46.89
2022-08-05T09:22:31.909Z,40.77
2022-08-05T09:23:28.838Z,45.76
2022-08-05T09:24:27.885Z,41.41
2022-08-05T09:26:01.874Z,40.61
2022-08-05T09:26:32.298Z,47.86
2022-08-05T09:28:04.537Z,42.86
2022-08-05T09:28:31.705Z,41.89
2022-08-05T09:29:30.899Z,40.77
2022-08-05T09:30:26.866Z,39.64
2022-08-05T09:32:40.017Z,43.51
2022-08-05T09:32:41.605Z,43.18
2022-08-05T09:33:34.984Z,44.31
2022-08-05T09:34:27.818Z,42.22
2022-08-05T09:35:27.601Z,43.67
2022-08-05T09:36:27.954Z,45.12
2022-08-05T09:38:12.594Z,45.28
2022-08-05T09:38:29.396Z,45.76
2022-08-05T09:39:41.880Z,46.08
2022-08-05T09:40:27.844Z,46.08
2022-08-05T09:41:26.770Z,41.09
2022-08-05T09:42:28.192Z,41.73
2022-08-05T09:43:26.746Z,40.61
2022-08-05T09:44:26.741Z,44.31
2022-08-05T09:46:06.569Z,43.34
2022-08-05T09:46:28.464Z,44.31
2022-08-05T09:47:28.620Z,44.96
2022-08-05T09:48:28.478Z,42.86
2022-08-05T09:49:40.359Z,45.76
2022-08-05T09:50:38.871Z,44.31
2022-08-05T09:51:27.694Z,44.47
2022-08-05T09:52:26.843Z,41.73
2022-08-05T09:53:53.742Z,45.28
2022-08-05T09:54:29.359Z,43.83
2022-08-05T09:55:57.872Z,47.37
2022-08-05T09:56:27.652Z,48.34
2022-08-05T09:57:26.643Z,47.70
2022-08-05T09:58:26.645Z,45.60
2022-08-05T09:59:27.401Z,45.28
2022-08-05T10:00:26.802Z,44.15
2022-08-05T10:01:32.446Z,47.86
2022-08-05T10:02:27.661Z,43.99
2022-08-05T10:03:56.943Z,44.96
2022-08-05T10:04:29.220Z,44.47
2022-08-05T10:05:26.848Z,42.70
2022-08-05T10:06:26.581Z,46.41
2022-08-05T10:07:59.401Z,46.41
2022-08-05T10:08:37.403Z,40.93
2022-08-05T10:09:29.970Z,45.44
2022-08-05T10:10:32.292Z,39.96
2022-08-05T10:11:31.309Z,47.37
2022-08-05T10:12:33.366Z,44.63
2022-08-05T10:13:27.516Z,39.80
2022-08-05T10:14:27.515Z,42.06
2022-08-05T10:15:26.539Z,46.08
2022-08-05T10:16:26.500Z,43.51
2022-08-05T10:17:38.101Z,43.34
2022-08-05T10:18:27.473Z,48.34
2022-08-05T10:19:31.841Z,46.25
2022-08-05T10:20:27.497Z,42.22
2022-08-05T10:21:26.458Z,41.57
2022-08-05T10:22:29.839Z,44.31
2022-08-05T10:23:56.216Z,46.73
2022-08-05T10:24:27.462Z,47.21
2022-08-05T10:25:26.416Z,46.41
2022-08-05T10:26:32.461Z,40.28
2022-08-05T10:28:09.651Z,49.79
2022-08-05T10:28:29.656Z,45.12
2022-08-05T10:30:41.520Z,43.18
2022-08-05T10:31:20.808Z,41.57
2022-08-05T10:32:51.792Z,44.79
2022-08-05T10:33:01.111Z,43.34
2022-08-05T10:33:28.799Z,43.83
2022-08-05T10:34:31.175Z,38.83
2022-08-05T10:35:33.968Z,39.80
2022-08-05T10:36:27.371Z,47.05
2022-08-05T10:37:26.711Z,44.31
2022-08-05T10:38:27.336Z,46.41
2022-08-05T10:40:03.507Z,43.02
2022-08-05T10:40:28.327Z,42.54
2022-08-05T10:41:26.333Z,48.50
2022-08-05T10:42:33.854Z,44.96
2022-08-05T10:43:31.017Z,43.83
2022-08-05T10:44:27.287Z,43.02
2022-08-05T10:45:40.461Z,46.08
2022-08-05T10:46:27.302Z,39.64
2022-08-05T10:47:31.163Z,46.89
2022-08-05T10:48:30.600Z,43.34
2022-08-05T10:49:33.215Z,43.67
2022-08-05T10:50:36.167Z,44.79
2022-08-05T10:51:29.167Z,44.15
2022-08-05T10:52:26.352Z,41.57
2022-08-05T10:53:26.226Z,47.37
2022-08-05T10:54:29.972Z,43.18
2022-08-05T10:55:27.211Z,40.93
2022-08-05T10:56:26.446Z,40.93
2022-08-05T10:57:26.194Z,45.28
2022-08-05T10:58:35.818Z,43.67
2022-08-05T11:00:03.391Z,43.18
2022-08-05T11:00:27.182Z,48.02
2022-08-05T11:01:28.256Z,46.08
2022-08-05T11:02:37.678Z,51.08
2022-08-05T11:03:27.382Z,46.08
2022-08-05T11:04:27.138Z,43.83
2022-08-05T11:05:29.139Z,46.25
2022-08-05T11:06:31.005Z,43.51
2022-08-05T11:07:33.197Z,44.31
2022-08-05T11:08:37.892Z,43.83
2022-08-05T11:09:45.254Z,43.83
2022-08-05T11:10:27.677Z,48.66
2022-08-05T11:11:41.958Z,45.28
2022-08-05T11:12:27.182Z,47.86
2022-08-05T11:13:26.076Z,47.53
2022-08-05T11:14:49.497Z,51.56
2022-08-05T11:15:59.338Z,44.47
2022-08-05T11:16:33.700Z,46.25
2022-08-05T11:18:09.782Z,46.08
2022-08-05T11:18:27.042Z,48.82
2022-08-05T11:20:11.577Z,46.89
2022-08-05T11:20:27.020Z,45.92
2022-08-05T11:21:26.008Z,44.15
2022-08-05T11:22:27.034Z,43.18
2022-08-05T11:23:26.008Z,44.15
2022-08-05T11:24:30.741Z,43.99
2022-08-05T11:26:04.655Z,43.18
2022-08-05T11:26:28.484Z,42.22
2022-08-05T11:27:26.998Z,42.70
2022-08-05T11:28:26.966Z,43.99
2022-08-05T11:29:25.970Z,43.02
2022-08-05T11:30:25.989Z,40.93
2022-08-05T11:31:54.345Z,48.82
2022-08-05T11:32:26.962Z,45.76
2022-08-05T11:33:25.926Z,43.67
2022-08-05T11:34:26.919Z,46.08
2022-08-05T11:35:26.250Z,44.79
2022-08-05T11:36:34.248Z,43.18
2022-08-05T11:38:26.716Z,42.70
2022-08-05T11:38:45.769Z,42.54
2022-08-05T11:39:27.095Z,42.70
2022-08-05T11:40:25.881Z,47.21
2022-08-05T11:41:56.170Z,44.47
2022-08-05T11:42:28.122Z,43.67
2022-08-05T11:44:00.760Z,49.63
2022-08-05T11:44:53.464Z,43.02
2022-08-05T11:46:23.396Z,44.63
2022-08-05T11:46:32.661Z,45.44
2022-08-05T11:47:49.074Z,44.47
2022-08-05T11:48:26.818Z,42.22
2022-08-05T11:49:25.813Z,44.79
2022-08-05T11:50:25.803Z,43.02
2022-08-05T11:51:44.367Z,44.15
2022-08-05T11:52:29.391Z,40.44
2022-08-05T11:53:25.777Z,44.31
2022-08-05T11:54:33.153Z,45.12
2022-08-05T11:55:31.793Z,46.41
2022-08-05T11:56:41.199Z,41.41
2022-08-05T11:57:27.198Z,47.05
2022-08-05T11:58:26.749Z,47.53
2022-08-05T11:59:25.729Z,41.73
2022-08-05T12:00:25.722Z,43.34
2022-08-05T12:01:25.742Z,41.25
2022-08-05T12:02:30.457Z,41.73
2022-08-05T12:03:31.556Z,46.41
2022-08-05T12:04:26.803Z,43.18
2022-08-05T12:05:36.132Z,44.79
2022-08-05T12:06:27.703Z,45.76
2022-08-05T12:08:10.191Z,40.44
2022-08-05T12:08:26.658Z,47.86
2022-08-05T12:09:38.505Z,49.63
2022-08-05T12:10:38.529Z,46.89
2022-08-05T12:11:28.435Z,48.34
2022-08-05T12:12:26.627Z,46.25
2022-08-05T12:13:47.873Z,47.05
2022-08-05T12:14:26.613Z,43.51
2022-08-05T12:15:35.732Z,43.18
2022-08-05T12:16:27.239Z,42.06
2022-08-05T12:18:09.915Z,43.18
2022-08-05T12:18:32.342Z,44.15
2022-08-05T12:20:26.184Z,45.28
2022-08-05T12:20:33.512Z,43.83
2022-08-05T12:21:29.860Z,47.86
2022-08-05T12:22:25.551Z,46.25
2022-08-05T12:23:25.547Z,45.44
2022-08-05T12:24:25.540Z,45.76
2022-08-05T12:25:28.442Z,44.79
2022-08-05T12:26:26.549Z,41.57
2022-08-05T12:27:25.704Z,46.41
2022-08-05T12:28:26.505Z,46.41
2022-08-05T12:29:25.502Z,46.25
2022-08-05T12:30:29.142Z,51.40
2022-08-05T12:31:33.665Z,45.12
2022-08-05T12:32:26.471Z,49.63
2022-08-05T12:33:27.388Z,50.27
2022-08-05T12:34:26.459Z,48.18
2022-08-05T12:35:39.545Z,48.02
2022-08-05T12:36:26.474Z,46.41
2022-08-05T12:37:30.178Z,45.76
2022-08-05T12:38:31.400Z,46.89
2022-08-05T12:39:34.334Z,43.67
2022-08-05T12:40:29.741Z,45.44
2022-08-05T12:41:25.413Z,42.38
2022-08-05T12:42:26.425Z,48.98
2022-08-05T12:43:25.393Z,51.40
2022-08-05T12:44:33.169Z,48.82
2022-08-05T12:45:42.496Z,42.22
2022-08-05T12:46:29.588Z,48.66
2022-08-05T12:47:26.768Z,45.60
2022-08-05T12:48:27.237Z,49.15
2022-08-05T12:49:25.607Z,43.02
2022-08-05T12:50:25.350Z,47.70
2022-08-05T12:52:12.921Z,49.47
2022-08-05T12:52:30.383Z,41.89
2022-08-05T12:53:37.104Z,45.12
2022-08-05T12:54:26.705Z,48.34